Aviation Digital Data Service (ADDS)

Output produced by METARs form (1112 UTC 19 February 2019)
found at http://www.aviationweather.gov/metar/data/
 
Forecast for: KMDT (MIDDLETOWN , PA, US)
Text: KMDT 190938Z 1910/2006 31009KT P6SM FEW250
Forecast period: 1000 UTC 19 February 2019 to 0600 UTC 20 February 2019
Forecast type: FROM: standard forecast or significant change
Winds: from the NW (310 degrees) at 10 MPH (9 knots; 4.6 m/s)
Visibility: 6 or more miles 10+ km)
Ceiling: at least 12,000 feet AGL
Clouds: few clouds at 25000 feet AGL
Weather: no significant weather forecast for this period